createdAt,value
2018-11-26T06:23:05.342Z,3
2018-11-26T06:23:35.424Z,0
2018-11-26T06:24:05.391Z,3
2018-11-26T06:29:35.746Z,7
2018-11-26T06:32:05.976Z,10
2018-11-26T06:34:06.050Z,13
2018-11-26T06:35:06.108Z,17
2018-11-26T06:37:06.237Z,20
2018-11-26T06:39:06.360Z,23
2018-11-26T06:40:06.416Z,27
2018-11-26T06:40:36.411Z,30
2018-11-26T06:41:06.476Z,33
2018-11-26T06:41:36.493Z,37
2018-11-26T06:42:06.537Z,43
2018-11-26T06:42:36.531Z,53
2018-11-26T06:43:06.604Z,60
2018-11-26T06:46:06.726Z,63
2018-11-26T06:48:06.905Z,67
2018-11-26T06:48:36.903Z,70
2018-11-26T06:49:36.970Z,73
2018-11-26T06:50:37.030Z,77
2018-11-26T06:51:07.119Z,80
2018-11-26T06:51:37.137Z,83
2018-11-26T06:52:07.141Z,87
2018-11-26T06:55:37.320Z,90
2018-11-26T06:56:07.418Z,97
2018-11-26T06:56:37.448Z,107
2018-11-26T06:57:07.420Z,113
2018-11-26T06:57:37.482Z,117
2018-11-26T06:58:07.488Z,120
2018-11-26T06:58:37.560Z,127
2018-11-26T06:59:07.547Z,130
2018-11-26T06:59:37.621Z,133
2018-11-26T07:00:37.673Z,137
2018-11-26T07:01:07.645Z,147
2018-11-26T07:01:37.803Z,157
2018-11-26T07:02:07.722Z,163
2018-11-26T07:02:37.743Z,173
2018-11-26T07:03:07.774Z,183
2018-11-26T07:03:37.799Z,193
2018-11-26T07:04:07.877Z,200
2018-11-26T07:04:37.868Z,210
2018-11-26T07:05:07.911Z,213
2018-11-26T07:05:37.926Z,223
2018-11-26T07:06:07.950Z,233
2018-11-26T07:06:38.037Z,247
2018-11-26T07:07:08.037Z,253
2018-11-26T07:07:38.071Z,263
2018-11-26T07:08:08.101Z,273
2018-11-26T07:08:38.126Z,290
2018-11-26T07:09:08.657Z,303
2018-11-26T07:09:38.170Z,317
2018-11-26T07:10:08.231Z,320
2018-11-26T07:10:38.268Z,323
2018-11-26T07:11:08.285Z,337
2018-11-26T07:11:38.360Z,350
2018-11-26T07:12:08.321Z,357
2018-11-26T07:12:38.355Z,353
2018-11-26T07:13:08.417Z,347
2018-11-26T07:14:08.496Z,350
2018-11-26T07:14:38.538Z,357
2018-11-26T07:15:08.575Z,367
2018-11-26T07:15:38.576Z,373
2018-11-26T07:16:38.736Z,377
2018-11-26T07:17:08.674Z,383
2018-11-26T07:17:38.698Z,387
2018-11-26T07:18:08.749Z,397
2018-11-26T07:18:38.769Z,407
2018-11-26T07:19:08.781Z,413
2018-11-26T07:19:38.821Z,410
2018-11-26T07:20:08.855Z,407
2018-11-26T07:21:08.909Z,417
2018-11-26T07:21:38.988Z,433
2018-11-26T07:22:08.974Z,467
2018-11-26T07:22:39.011Z,497
2018-11-26T07:23:09.038Z,507
2018-11-26T07:23:39.068Z,523
2018-11-26T07:24:09.066Z,557
2018-11-26T07:24:39.138Z,607
2018-11-26T07:25:09.154Z,647
2018-11-26T07:25:39.193Z,680
2018-11-26T07:26:09.181Z,717
2018-11-26T07:26:39.340Z,760
2018-11-26T07:27:09.276Z,807
2018-11-26T07:27:39.313Z,847
2018-11-26T07:28:09.337Z,873
2018-11-26T07:28:39.377Z,920
2018-11-26T07:29:09.395Z,983
2018-11-26T07:29:39.445Z,1043
2018-11-26T07:30:09.462Z,1080
2018-11-26T07:30:39.497Z,1120
2018-11-26T07:31:09.523Z,1177
2018-11-26T07:31:39.611Z,1247
2018-11-26T07:32:09.614Z,1283
2018-11-26T07:32:39.616Z,1257
2018-11-26T07:33:09.615Z,1187
2018-11-26T07:33:39.682Z,1123
2018-11-26T07:34:09.702Z,1113
2018-11-26T07:34:39.741Z,1127
2018-11-26T07:35:09.763Z,1097
2018-11-26T07:35:39.769Z,1050
2018-11-26T07:36:11.373Z,1003
2018-11-26T07:36:39.917Z,953
2018-11-26T07:37:09.890Z,903
2018-11-26T07:37:39.928Z,867
2018-11-26T07:38:09.945Z,847
2018-11-26T07:38:40.035Z,827
2018-11-26T07:39:10.042Z,817
2018-11-26T07:39:40.069Z,820
2018-11-26T07:40:10.064Z,837
2018-11-26T07:40:40.104Z,870
2018-11-26T07:41:10.133Z,893
2018-11-26T07:41:40.227Z,873
2018-11-26T07:42:10.190Z,853
2018-11-26T07:43:10.247Z,863
2018-11-26T07:43:40.313Z,880
2018-11-26T07:44:10.320Z,907
2018-11-26T07:44:40.359Z,937
2018-11-26T07:45:10.360Z,950
2018-11-26T07:45:40.377Z,957
2018-11-26T07:46:10.450Z,977
2018-11-26T07:46:40.504Z,983
2018-11-26T07:47:10.496Z,990
2018-11-26T07:47:40.507Z,997
2018-11-26T07:48:10.537Z,990
2018-11-26T07:48:40.574Z,1000
2018-11-26T07:49:10.638Z,1013
2018-11-26T07:50:10.660Z,1027
2018-11-26T07:50:40.736Z,1047
2018-11-26T07:51:10.722Z,1050
2018-11-26T07:51:40.798Z,1043
2018-11-26T07:52:10.789Z,1047
2018-11-26T07:52:40.842Z,1050
2018-11-26T07:53:10.835Z,1040
2018-11-26T07:53:40.874Z,1027
2018-11-26T07:54:10.924Z,1007
2018-11-26T07:54:40.976Z,993
2018-11-26T07:55:10.969Z,1007
2018-11-26T07:55:41.067Z,1023
2018-11-26T07:56:11.048Z,1050
2018-11-26T07:56:41.679Z,1100
2018-11-26T07:57:11.117Z,1190
2018-11-26T07:57:41.191Z,1270
2018-11-26T07:58:11.210Z,1313
2018-11-26T07:58:41.233Z,1330
2018-11-26T07:59:11.208Z,1333
2018-11-26T07:59:41.291Z,1347
2018-11-26T08:00:11.330Z,1357
2018-11-26T08:01:11.413Z,1373
2018-11-26T08:01:41.499Z,1413
2018-11-26T08:02:11.477Z,1457
2018-11-26T08:02:41.468Z,1487
2018-11-26T08:03:11.512Z,1553
2018-11-26T08:03:41.501Z,1590
2018-11-26T08:04:11.527Z,1583
2018-11-26T08:04:41.570Z,1553
2018-11-26T08:05:11.664Z,1537
2018-11-26T08:05:41.712Z,1510
2018-11-26T08:06:11.697Z,1473
2018-11-26T08:06:41.714Z,1457
2018-11-26T08:07:11.755Z,1463
2018-11-26T08:07:41.787Z,1467
2018-11-26T08:08:11.842Z,1497
2018-11-26T08:08:41.899Z,1550
2018-11-26T08:09:11.875Z,1597
2018-11-26T08:09:42.381Z,1630
2018-11-26T08:10:11.937Z,1643
2018-11-26T08:10:41.984Z,1657
2018-11-26T08:11:12.001Z,1707
2018-11-26T08:11:42.100Z,1800
2018-11-26T08:12:12.065Z,1883
2018-11-26T08:12:42.142Z,1907
2018-11-26T08:13:12.145Z,1910
2018-11-26T08:13:42.172Z,1930
2018-11-26T08:14:12.204Z,1970
2018-11-26T08:14:42.234Z,2010
2018-11-26T08:15:12.245Z,2060
2018-11-26T08:15:42.230Z,2063
2018-11-26T08:16:12.305Z,2027
2018-11-26T08:16:42.348Z,1967
2018-11-26T08:17:12.366Z,1913
2018-11-26T08:17:42.344Z,1923
2018-11-26T08:18:12.419Z,2007
2018-11-26T08:18:42.505Z,2073
2018-11-26T08:19:12.486Z,2113
2018-11-26T08:19:42.473Z,2203
2018-11-26T08:20:12.554Z,2310
2018-11-26T08:20:42.570Z,2443
2018-11-26T08:21:12.654Z,2547
2018-11-26T08:21:42.674Z,2577
2018-11-26T08:22:12.678Z,2497
2018-11-26T08:22:42.716Z,2390
2018-11-26T08:23:12.683Z,2347
2018-11-26T08:23:42.728Z,2310
2018-11-26T08:24:12.804Z,2347
2018-11-26T08:24:42.807Z,2460
2018-11-26T08:25:12.884Z,2570
2018-11-26T08:25:42.922Z,2660
2018-11-26T08:26:12.921Z,2653
2018-11-26T08:26:43.021Z,2633
2018-11-26T08:27:12.970Z,2657
2018-11-26T08:27:43.046Z,2617
2018-11-26T08:28:13.028Z,2590
2018-11-26T08:28:43.074Z,2593
2018-11-26T08:29:13.089Z,2643
2018-11-26T08:29:43.159Z,2687
2018-11-26T08:30:13.147Z,2803
2018-11-26T08:30:43.204Z,3010
2018-11-26T08:31:13.216Z,3167
2018-11-26T08:31:43.310Z,3197
2018-11-26T08:32:13.277Z,3153
2018-11-26T08:32:43.327Z,3100
2018-11-26T08:33:13.332Z,3143
2018-11-26T08:33:43.409Z,3190
2018-11-26T08:34:13.358Z,3220
2018-11-26T08:34:43.413Z,3143
2018-11-26T08:35:13.548Z,3070
2018-11-26T08:35:43.486Z,3057
2018-11-26T08:36:13.525Z,3157
2018-11-26T08:36:43.557Z,3343
2018-11-26T08:37:13.552Z,3300
2018-11-26T08:37:43.631Z,3240
2018-11-26T08:38:13.631Z,3247
2018-11-26T08:38:43.673Z,3120
2018-11-26T08:39:13.675Z,3073
2018-11-26T08:39:43.719Z,3303
2018-11-26T08:40:13.789Z,3533
2018-11-26T08:40:43.792Z,3610
2018-11-26T08:41:13.825Z,3560
2018-11-26T08:41:43.822Z,3370
2018-11-26T08:42:13.845Z,3170
2018-11-26T08:42:43.901Z,3390
2018-11-26T08:43:13.967Z,3710
2018-11-26T08:43:43.950Z,3550
2018-11-26T08:44:13.974Z,3340
2018-11-26T08:44:44.006Z,3327
2018-11-26T08:45:14.089Z,3250
2018-11-26T08:45:44.088Z,3167
2018-11-26T08:46:14.145Z,3063
2018-11-26T08:46:44.129Z,3183
2018-11-26T08:47:14.187Z,3873
2018-11-26T08:47:44.224Z,4130
2018-11-26T08:48:14.243Z,3897
2018-11-26T08:48:44.329Z,3623
2018-11-26T08:49:14.310Z,3750
2018-11-26T08:49:44.344Z,3907
2018-11-26T08:50:14.399Z,3620
2018-11-26T08:50:44.420Z,3380
2018-11-26T08:51:14.431Z,3427
2018-11-26T08:51:44.471Z,3357
2018-11-26T08:52:14.498Z,3163
2018-11-26T08:52:44.548Z,3073
2018-11-26T08:53:14.556Z,2977
2018-11-26T08:53:44.572Z,2987
2018-11-26T08:54:14.622Z,3310
2018-11-26T08:54:44.655Z,3420
2018-11-26T08:55:14.732Z,3223
2018-11-26T08:55:44.724Z,3163
2018-11-26T08:56:15.928Z,3127
2018-11-26T08:56:44.775Z,3340
2018-11-26T08:57:14.795Z,3320
2018-11-26T08:57:44.836Z,3087
2018-11-26T08:58:14.902Z,3163
2018-11-26T08:58:44.896Z,3290
2018-11-26T08:59:14.913Z,3420
2018-11-26T08:59:44.965Z,3650
2018-11-26T09:00:15.006Z,3753
2018-11-26T09:00:45.017Z,3487
2018-11-26T09:01:15.034Z,3413
2018-11-26T09:01:45.082Z,3530
2018-11-26T09:02:15.101Z,3423
2018-11-26T09:02:45.143Z,3367
2018-11-26T09:03:15.170Z,3407
2018-11-26T09:03:45.218Z,3377
2018-11-26T09:04:15.225Z,3420
2018-11-26T09:04:45.297Z,3557
2018-11-26T09:05:15.380Z,3717
2018-11-26T09:05:45.338Z,3990
2018-11-26T09:06:15.393Z,4200
2018-11-26T09:06:45.414Z,4240
2018-11-26T09:07:15.453Z,4280
2018-11-26T09:07:45.460Z,4360
2018-11-26T09:08:15.512Z,4287
2018-11-26T09:08:45.540Z,4000
2018-11-26T09:09:15.584Z,3817
2018-11-26T09:09:45.573Z,3957
2018-11-26T09:10:15.699Z,4340
2018-11-26T09:10:45.628Z,4623
2018-11-26T09:11:15.691Z,4527
2018-11-26T09:11:45.693Z,4177
2018-11-26T09:12:15.755Z,4227
2018-11-26T09:12:45.830Z,4750
2018-11-26T09:13:15.816Z,4937
2018-11-26T09:13:45.812Z,4920
2018-11-26T09:14:15.873Z,5040
2018-11-26T09:14:45.868Z,5020
2018-11-26T09:15:15.967Z,4977
2018-11-26T09:15:45.934Z,4807
2018-11-26T09:16:16.007Z,4930
2018-11-26T09:16:45.998Z,5323
2018-11-26T09:17:16.069Z,5580
2018-11-26T09:17:46.052Z,5640
2018-11-26T09:18:16.118Z,5620
2018-11-26T09:18:46.175Z,5637
2018-11-26T09:19:16.181Z,5690
2018-11-26T09:19:46.184Z,5800
2018-11-26T09:20:16.305Z,5750
2018-11-26T09:20:46.235Z,5710
2018-11-26T09:21:16.304Z,6207
2018-11-26T09:21:46.307Z,6690
2018-11-26T09:22:16.388Z,6793
2018-11-26T09:22:46.362Z,6750
2018-11-26T09:23:16.366Z,6537
2018-11-26T09:23:46.423Z,6250
2018-11-26T09:24:16.489Z,6107
2018-11-26T09:24:46.476Z,6090
2018-11-26T09:25:16.569Z,5883
2018-11-26T09:25:46.539Z,5937
2018-11-26T09:26:16.568Z,6077
2018-11-26T09:26:46.634Z,5970
2018-11-26T09:27:16.647Z,5950
2018-11-26T09:27:46.653Z,6053
2018-11-26T09:28:16.696Z,6287
2018-11-26T09:28:46.708Z,6190
2018-11-26T09:29:16.758Z,6047
2018-11-26T09:29:46.770Z,5713
2018-11-26T09:30:16.830Z,5540
2018-11-26T09:30:46.827Z,5907
2018-11-26T09:31:16.880Z,6113
2018-11-26T09:31:46.898Z,6093
2018-11-26T09:32:16.920Z,6570
2018-11-26T09:32:46.992Z,7253
2018-11-26T09:33:16.978Z,7357
2018-11-26T09:33:47.070Z,6837
2018-11-26T09:34:17.061Z,6490
2018-11-26T09:34:47.077Z,6423
2018-11-26T09:35:17.208Z,6700
2018-11-26T09:35:47.174Z,6943
2018-11-26T09:36:17.186Z,6680
2018-11-26T09:36:47.264Z,6667
2018-11-26T09:37:17.300Z,6660
2018-11-26T09:37:47.308Z,6497
2018-11-26T09:38:17.342Z,6493
2018-11-26T09:38:47.403Z,6787
2018-11-26T09:39:17.415Z,7050
2018-11-26T09:39:47.451Z,6777
2018-11-26T09:40:17.518Z,6330
2018-11-26T09:40:47.514Z,6003
2018-11-26T09:41:17.520Z,5760
2018-11-26T09:41:47.595Z,5550
2018-11-26T09:42:17.584Z,5800
2018-11-26T09:42:47.654Z,6240
2018-11-26T09:43:17.596Z,6170
2018-11-26T09:43:47.715Z,5930
2018-11-26T09:44:17.720Z,5667
2018-11-26T09:44:47.751Z,5550
2018-11-26T09:45:17.784Z,5767
2018-11-26T09:45:47.835Z,6017
2018-11-26T09:46:17.818Z,6163
2018-11-26T09:46:47.890Z,6017
2018-11-26T09:47:17.882Z,5893
2018-11-26T09:47:47.960Z,5703
2018-11-26T09:48:17.902Z,5660
2018-11-26T09:48:47.988Z,5823
2018-11-26T09:49:18.010Z,5753
2018-11-26T09:49:48.051Z,5550
2018-11-26T09:50:18.146Z,5523
2018-11-26T09:50:48.118Z,5350
2018-11-26T09:51:18.124Z,5180
2018-11-26T09:51:48.174Z,5327
2018-11-26T09:52:18.186Z,5593
2018-11-26T09:52:48.226Z,5617
2018-11-26T09:53:18.248Z,5520
2018-11-26T09:53:48.288Z,5603
2018-11-26T09:54:25.748Z,5783
2018-11-26T09:54:48.313Z,5937
2018-11-26T09:55:18.396Z,6150
2018-11-26T09:55:48.410Z,6080
2018-11-26T09:56:18.435Z,5827
2018-11-26T09:56:48.481Z,5867
2018-11-26T09:57:18.494Z,6160
2018-11-26T09:57:48.532Z,6513
2018-11-26T09:58:18.594Z,6553
2018-11-26T09:58:48.599Z,6297
2018-11-26T09:59:18.625Z,6113
2018-11-26T09:59:48.661Z,5910
2018-11-26T10:00:18.704Z,5997
2018-11-26T10:00:48.715Z,6207
2018-11-26T10:01:18.735Z,6367
2018-11-26T10:01:48.817Z,6523
2018-11-26T10:02:18.804Z,6727
2018-11-26T10:02:48.835Z,6517
2018-11-26T10:03:18.860Z,6177
2018-11-26T10:03:48.905Z,6213
2018-11-26T10:04:18.919Z,6380
2018-11-26T10:04:48.960Z,6413
2018-11-26T10:05:19.057Z,6227
2018-11-26T10:05:49.020Z,5997
2018-11-26T10:06:19.174Z,5940
2018-11-26T10:06:49.084Z,6200
2018-11-26T10:07:19.109Z,6320
2018-11-26T10:07:49.142Z,6110
2018-11-26T10:08:19.184Z,5737
2018-11-26T10:08:49.204Z,5320
2018-11-26T10:09:19.219Z,5093
2018-11-26T10:09:49.273Z,4927
2018-11-26T10:10:19.330Z,4920
2018-11-26T10:10:49.345Z,5017
2018-11-26T10:11:19.360Z,5043
2018-11-26T10:11:49.358Z,5270
2018-11-26T10:12:19.470Z,5547
2018-11-26T10:12:49.427Z,5537
2018-11-26T10:13:20.716Z,5400
2018-11-26T10:13:49.491Z,5163
2018-11-26T10:14:19.529Z,4770
2018-11-26T10:14:49.549Z,4533
2018-11-26T10:15:19.631Z,4737
2018-11-26T10:15:49.630Z,5137
2018-11-26T10:16:19.643Z,5693
2018-11-26T10:16:49.668Z,6177
2018-11-26T10:17:19.691Z,6237
2018-11-26T10:17:49.728Z,5837
2018-11-26T10:18:19.809Z,5300
2018-11-26T10:18:49.823Z,5020
2018-11-26T10:19:19.808Z,5100
2018-11-26T10:19:49.888Z,5467
2018-11-26T10:20:19.902Z,5850
2018-11-26T10:20:49.952Z,5993
2018-11-26T10:21:19.927Z,5787
2018-11-26T10:21:49.972Z,5403
2018-11-26T10:22:19.989Z,5057
2018-11-26T10:22:50.027Z,4817
2018-11-26T10:23:20.087Z,4730
2018-11-26T10:23:50.084Z,4773
2018-11-26T10:24:20.153Z,4993
2018-11-26T10:24:50.271Z,5293
2018-11-26T10:25:20.241Z,5550
2018-11-26T10:25:50.229Z,5720
2018-11-26T10:26:20.323Z,5703
2018-11-26T10:26:50.301Z,5410
2018-11-26T10:27:20.304Z,5003
2018-11-26T10:27:50.388Z,4863
2018-11-26T10:28:20.423Z,5047
2018-11-26T10:28:50.432Z,5200
2018-11-26T10:29:20.478Z,5110
2018-11-26T10:29:50.487Z,5013
2018-11-26T10:30:20.559Z,5063
2018-11-26T10:30:50.545Z,5227
2018-11-26T10:31:20.569Z,5410
2018-11-26T10:31:50.671Z,5670
2018-11-26T10:32:20.603Z,5963
2018-11-26T10:32:50.701Z,6033
2018-11-26T10:33:20.759Z,5940
2018-11-26T10:33:50.734Z,5997
2018-11-26T10:34:20.731Z,6200
2018-11-26T10:34:50.793Z,6370
2018-11-26T10:35:20.818Z,6420
2018-11-26T10:35:50.864Z,6303
2018-11-26T10:36:20.912Z,6050
2018-11-26T10:36:50.945Z,5943
2018-11-26T10:37:21.001Z,6113
2018-11-26T10:37:50.980Z,6590
2018-11-26T10:38:21.018Z,6743
2018-11-26T10:38:51.030Z,6410
2018-11-26T10:39:21.082Z,6033
2018-11-26T10:39:51.093Z,5773
2018-11-26T10:40:21.217Z,5863
2018-11-26T10:40:51.152Z,6123
2018-11-26T10:41:21.223Z,6210
2018-11-26T10:41:51.213Z,6303
2018-11-26T10:42:21.259Z,6673
2018-11-26T10:42:51.327Z,7230
2018-11-26T10:43:21.363Z,7913
2018-11-26T10:43:51.340Z,8577
2018-11-26T10:44:21.403Z,8330
2018-11-26T10:44:51.440Z,7403
2018-11-26T10:45:21.519Z,6793
2018-11-26T10:45:51.511Z,6760
2018-11-26T10:46:21.571Z,6733
2018-11-26T10:46:51.596Z,6497
2018-11-26T10:47:21.586Z,6160
2018-11-26T10:47:51.633Z,5940
2018-11-26T10:48:21.667Z,6117
2018-11-26T10:48:51.684Z,6427
2018-11-26T10:49:21.710Z,6643
2018-11-26T10:49:51.748Z,6457
2018-11-26T10:50:21.819Z,5913
2018-11-26T10:50:51.835Z,5440
2018-11-26T10:51:21.829Z,5310
2018-11-26T10:51:51.839Z,5333
2018-11-26T10:52:21.890Z,5337
2018-11-26T10:52:51.926Z,5420
2018-11-26T10:53:21.983Z,5760
2018-11-26T10:53:52.015Z,6207
2018-11-26T10:54:22.038Z,6563
2018-11-26T10:54:52.073Z,6573
2018-11-26T10:55:22.137Z,6470
2018-11-26T10:55:52.094Z,6523
2018-11-26T10:56:22.094Z,6423
2018-11-26T10:56:52.187Z,6223
2018-11-26T10:57:22.195Z,6123
2018-11-26T10:57:52.241Z,6363
2018-11-26T10:58:22.282Z,6977
2018-11-26T10:58:52.297Z,7727
2018-11-26T10:59:22.351Z,8370
2018-11-26T10:59:52.308Z,8717
2018-11-26T11:00:22.399Z,8630
2018-11-26T11:00:52.419Z,8377
2018-11-26T11:01:22.447Z,8240
2018-11-26T11:01:52.485Z,8143
2018-11-26T11:02:22.496Z,8000
2018-11-26T11:02:52.533Z,8090
2018-11-26T11:03:22.536Z,8263
2018-11-26T11:03:52.551Z,8273
2018-11-26T11:04:22.587Z,8300
2018-11-26T11:04:52.620Z,8487
2018-11-26T11:05:22.696Z,8853
2018-11-26T11:05:52.726Z,9203
2018-11-26T11:06:22.713Z,9487
2018-11-26T11:06:55.630Z,9697
2018-11-26T11:07:22.770Z,9970
2018-11-26T11:07:52.791Z,10130
2018-11-26T11:08:23.821Z,9997
2018-11-26T11:08:52.875Z,9750
2018-11-26T11:09:22.888Z,9673
2018-11-26T11:09:52.928Z,9770
2018-11-26T11:10:23.008Z,9827
2018-11-26T11:10:52.976Z,9863
2018-11-26T11:11:23.519Z,9963
2018-11-26T11:12:23.117Z,9863
2018-11-26T11:12:53.105Z,9703
2018-11-26T11:13:23.202Z,9517
2018-11-26T11:13:53.157Z,9337
2018-11-26T11:14:23.186Z,9133
2018-11-26T11:14:53.267Z,8813
2018-11-26T11:15:23.317Z,8467
2018-11-26T11:15:53.327Z,8210
2018-11-26T11:16:23.330Z,8073
2018-11-26T11:16:53.373Z,7947
2018-11-26T11:17:23.456Z,7680
2018-11-26T11:17:53.431Z,7263
2018-11-26T11:18:23.441Z,6747
2018-11-26T11:18:53.493Z,6353
2018-11-26T11:19:23.507Z,6030
2018-11-26T11:19:53.557Z,5780
2018-11-26T11:20:23.704Z,5583
2018-11-26T11:20:53.614Z,5350
2018-11-26T11:21:23.677Z,5100
2018-11-26T11:21:53.689Z,4910
2018-11-26T11:22:23.738Z,4837
2018-11-26T11:22:53.714Z,4807
2018-11-26T11:23:23.819Z,4720
2018-11-26T11:23:53.778Z,4577
2018-11-26T11:24:23.795Z,4420
2018-11-26T11:24:53.879Z,4267
2018-11-26T11:25:23.975Z,4153
2018-11-26T11:25:53.940Z,4157
2018-11-26T11:26:23.997Z,4273
2018-11-26T11:26:53.961Z,4400
2018-11-26T11:27:24.041Z,4427
2018-11-26T11:27:54.058Z,4343
2018-11-26T11:28:24.098Z,4200
2018-11-26T11:28:54.114Z,4097
2018-11-26T11:29:24.162Z,4113
2018-11-26T11:29:54.155Z,4223
2018-11-26T11:30:24.275Z,4323
2018-11-26T11:30:54.201Z,4393
2018-11-26T11:31:24.286Z,4470
2018-11-26T11:31:54.257Z,4587
2018-11-26T11:32:24.348Z,4717
2018-11-26T11:32:54.372Z,4780
2018-11-26T11:33:54.382Z,4843
2018-11-26T11:34:24.468Z,4777
2018-11-26T11:34:54.451Z,4647
2018-11-26T11:35:24.581Z,4443
2018-11-26T11:35:54.527Z,4137
2018-11-26T11:36:24.621Z,3840
2018-11-26T11:36:54.601Z,3597
2018-11-26T11:37:24.650Z,3433
2018-11-26T11:37:54.669Z,3340
2018-11-26T11:38:24.666Z,3327
2018-11-26T11:38:54.690Z,3407
2018-11-26T11:39:24.722Z,3570
2018-11-26T11:39:54.765Z,3823
2018-11-26T11:40:24.809Z,4117
2018-11-26T11:40:54.814Z,4340
2018-11-26T11:41:24.899Z,4430
2018-11-26T11:41:54.913Z,4393
2018-11-26T11:42:24.912Z,4317
2018-11-26T11:42:54.983Z,4247
2018-11-26T11:43:25.040Z,4163
2018-11-26T11:43:55.033Z,4137
2018-11-26T11:44:25.107Z,4193
2018-11-26T11:44:55.092Z,4323
2018-11-26T11:45:25.170Z,4483
2018-11-26T11:45:55.147Z,4657
2018-11-26T11:46:25.163Z,4810
2018-11-26T11:46:55.215Z,4947
2018-11-26T11:47:25.287Z,5097
2018-11-26T11:47:55.278Z,5220
2018-11-26T11:48:25.327Z,5277
2018-11-26T11:48:55.354Z,5233
2018-11-26T11:49:25.392Z,5120
2018-11-26T11:49:55.397Z,4940
2018-11-26T11:50:25.515Z,4723
2018-11-26T11:50:55.472Z,4527
2018-11-26T11:51:25.502Z,4410
2018-11-26T11:51:55.533Z,4360
2018-11-26T11:52:25.535Z,4340
2018-11-26T11:52:55.613Z,4310
2018-11-26T11:53:25.580Z,4283
2018-11-26T11:53:55.629Z,4287
2018-11-26T11:54:25.647Z,4407
2018-11-26T11:54:55.684Z,4627
2018-11-26T11:55:25.772Z,4743
2018-11-26T11:55:55.739Z,4660
2018-11-26T11:56:25.796Z,4477
2018-11-26T11:56:55.833Z,4313
2018-11-26T11:57:25.831Z,4227
2018-11-26T11:57:55.859Z,4193
2018-11-26T11:58:25.897Z,4187
2018-11-26T11:58:55.930Z,4190
2018-11-26T11:59:25.953Z,4170
2018-11-26T11:59:55.994Z,4130
2018-11-26T12:00:26.074Z,4163
2018-11-26T12:00:56.043Z,4247
2018-11-26T12:01:26.077Z,4323
2018-11-26T12:01:56.167Z,4353
2018-11-26T12:02:26.177Z,4367
2018-11-26T12:02:56.242Z,4373
2018-11-26T12:03:26.217Z,4343
2018-11-26T12:03:56.281Z,4250
2018-11-26T12:04:26.310Z,4060
2018-11-26T12:04:56.307Z,3897
2018-11-26T12:05:26.482Z,3767
2018-11-26T12:05:56.393Z,3607
2018-11-26T12:06:26.463Z,3413
2018-11-26T12:06:56.483Z,3267
2018-11-26T12:07:26.497Z,3180
2018-11-26T12:07:56.564Z,3160
2018-11-26T12:08:26.541Z,3177
2018-11-26T12:08:56.601Z,3193
2018-11-26T12:09:56.691Z,3243
2018-11-26T12:10:26.699Z,3367
2018-11-26T12:10:56.766Z,3477
2018-11-26T12:11:26.775Z,3540
2018-11-26T12:11:56.793Z,3550
2018-11-26T12:12:26.809Z,3513
2018-11-26T12:12:56.867Z,3450
2018-11-26T12:13:26.875Z,3400
2018-11-26T12:13:56.908Z,3380
2018-11-26T12:14:26.959Z,3423
2018-11-26T12:14:56.964Z,3570
2018-11-26T12:15:27.025Z,3707
2018-11-26T12:15:57.054Z,3750
2018-11-26T12:16:27.048Z,3717
2018-11-26T12:16:57.085Z,3697
2018-11-26T12:17:27.134Z,3747
2018-11-26T12:17:57.172Z,3820
2018-11-26T12:18:27.188Z,3870
2018-11-26T12:18:57.207Z,3897
2018-11-26T12:19:27.239Z,3927
2018-11-26T12:19:57.266Z,3980
2018-11-26T12:20:27.358Z,4033
2018-11-26T12:20:57.327Z,4053
2018-11-26T12:21:57.379Z,4043
2018-11-26T12:22:27.417Z,3963
2018-11-26T12:22:57.482Z,3837
2018-11-26T12:23:27.480Z,3713
2018-11-26T12:23:57.525Z,3637
2018-11-26T12:24:27.541Z,3600
2018-11-26T12:24:57.574Z,3580
2018-11-26T12:25:27.635Z,3623
2018-11-26T12:25:57.649Z,3717
2018-11-26T12:26:27.661Z,3850
2018-11-26T12:26:57.731Z,4000
2018-11-26T12:27:27.755Z,4143
2018-11-26T12:27:57.757Z,4197
2018-11-26T12:28:27.819Z,4030
2018-11-26T12:28:57.834Z,3693
2018-11-26T12:29:27.855Z,3370
2018-11-26T12:29:57.875Z,3180
2018-11-26T12:30:27.947Z,3093
2018-11-26T12:30:57.936Z,3097
2018-11-26T12:31:27.979Z,3143
2018-11-26T12:31:58.001Z,3157
2018-11-26T12:32:28.031Z,3087
2018-11-26T12:32:58.121Z,2967
2018-11-26T12:33:28.095Z,2897
2018-11-26T12:33:58.130Z,2887
2018-11-26T12:34:28.125Z,2813
2018-11-26T12:34:58.227Z,2737
2018-11-26T12:35:28.266Z,2720
2018-11-26T12:35:58.239Z,2767
2018-11-26T12:36:28.273Z,2863
2018-11-26T12:36:58.305Z,2940
2018-11-26T12:37:28.337Z,2950
2018-11-26T12:37:58.361Z,2940
2018-11-26T12:38:28.390Z,2920
2018-11-26T12:39:28.476Z,2970
2018-11-26T12:39:58.488Z,3037
2018-11-26T12:40:28.547Z,3103
2018-11-26T12:40:58.540Z,3137
2018-11-26T12:41:28.568Z,3163
2018-11-26T12:41:58.571Z,3193
2018-11-26T12:42:28.596Z,3250
2018-11-26T12:42:58.639Z,3440
2018-11-26T12:43:28.655Z,3633
2018-11-26T12:43:58.682Z,3737
2018-11-26T12:44:28.740Z,3890
2018-11-26T12:44:58.805Z,4127
2018-11-26T12:45:28.839Z,4263
2018-11-26T12:45:58.818Z,4363
2018-11-26T12:46:28.848Z,4423
2018-11-26T12:46:58.887Z,4420
2018-11-26T12:47:58.934Z,4437
2018-11-26T12:48:28.964Z,4377
2018-11-26T12:48:59.007Z,4293
2018-11-26T12:49:29.036Z,4353
2018-11-26T12:49:59.113Z,4530
2018-11-26T12:50:29.161Z,4717
2018-11-26T12:50:59.160Z,4760
2018-11-26T12:51:29.150Z,4730
2018-11-26T12:51:59.179Z,4740
2018-11-26T12:52:29.231Z,4730
2018-11-26T12:52:59.310Z,4763
2018-11-26T12:53:29.322Z,4850
2018-11-26T12:53:59.344Z,4933
2018-11-26T12:54:29.349Z,4993
2018-11-26T12:54:59.412Z,4997
2018-11-26T12:55:29.435Z,5020
2018-11-26T12:55:59.457Z,5040
2018-11-26T12:56:29.507Z,5060
2018-11-26T12:56:59.537Z,5080
2018-11-26T12:57:29.568Z,5103
2018-11-26T12:57:59.583Z,5137
2018-11-26T12:58:29.630Z,5207
2018-11-26T12:58:59.638Z,5303
2018-11-26T12:59:29.715Z,5373
2018-11-26T12:59:59.707Z,5420
2018-11-26T13:00:29.812Z,5483
2018-11-26T13:00:59.761Z,5543
2018-11-26T13:01:29.816Z,5570
2018-11-26T13:01:59.829Z,5603
2018-11-26T13:02:29.878Z,5607
2018-11-26T13:02:59.856Z,5533
2018-11-26T13:03:29.962Z,5373
2018-11-26T13:03:59.941Z,5210
2018-11-26T13:04:30.009Z,5057
2018-11-26T13:05:00.020Z,4983
2018-11-26T13:05:30.351Z,4933
2018-11-26T13:06:00.069Z,4823
2018-11-26T13:06:30.134Z,4700
2018-11-26T13:07:00.102Z,4613
2018-11-26T13:07:30.184Z,4553
2018-11-26T13:08:00.210Z,4513
2018-11-26T13:08:30.250Z,4413
2018-11-26T13:09:01.314Z,4263
2018-11-26T13:09:30.277Z,4097
2018-11-26T13:10:01.509Z,3960
2018-11-26T13:10:30.387Z,3840
2018-11-26T13:11:00.652Z,3733
2018-11-26T13:11:30.431Z,3667
2018-11-26T13:12:00.691Z,3627
2018-11-26T13:12:30.538Z,3567
2018-11-26T13:13:00.654Z,3537
2018-11-26T13:13:30.583Z,3513
2018-11-26T13:14:00.680Z,3547
2018-11-26T13:14:30.602Z,3647
2018-11-26T13:15:00.768Z,3743
2018-11-26T13:15:30.700Z,3720
2018-11-26T13:16:00.932Z,3603
2018-11-26T13:16:30.772Z,3530
2018-11-26T13:17:00.713Z,3633
2018-11-26T13:17:30.837Z,3750
2018-11-26T13:18:00.883Z,3733
2018-11-26T13:18:30.810Z,3683
2018-11-26T13:19:01.019Z,3613
2018-11-26T13:19:30.895Z,3457
2018-11-26T13:20:00.906Z,3243
2018-11-26T13:20:31.044Z,3030
2018-11-26T13:21:00.964Z,2980
2018-11-26T13:21:31.017Z,3110
2018-11-26T13:22:01.028Z,3177
2018-11-26T13:22:31.078Z,3013
2018-11-26T13:23:01.103Z,2833
2018-11-26T13:23:31.134Z,2773
2018-11-26T13:24:01.160Z,2783
2018-11-26T13:25:01.276Z,2653
2018-11-26T13:25:31.266Z,2513
2018-11-26T13:26:01.272Z,2420
2018-11-26T13:26:31.312Z,2360
2018-11-26T13:27:01.374Z,2270
2018-11-26T13:27:31.389Z,2157
2018-11-26T13:28:01.397Z,2067
2018-11-26T13:28:31.430Z,2040
2018-11-26T13:29:01.479Z,2070
2018-11-26T13:29:31.694Z,2090
2018-11-26T13:30:01.532Z,2087
2018-11-26T13:30:31.623Z,2063
2018-11-26T13:31:01.587Z,2043
2018-11-26T13:31:31.671Z,2040
2018-11-26T13:32:01.729Z,2033
2018-11-26T13:32:31.676Z,2003